Terminal Aerodrome Forecast
Issued by NWS Charleston, WV

Current Version | Previous Version | Graphics & Text | Print | Product List | Glossary On
Versions: 1 2 3 4 5 6 7 8 9 10 11 12 13 14 15 16 17 18 19 20 21 22 23 24 25 26 27 28
000
FTUS41 KRLX 230200 AAA
TAFBKW
TAF AMD
KBKW 230254Z 2303/2324 34006KT P6SM BKN008 OVC012
     FM230900 33007KT P6SM OVC008
     FM231400 32007KT P6SM OVC015
     FM232200 31007KT P6SM SCT020=

USA.gov is the U.S. government's official web portal to all federal, state and local government web resources and services.